Home   Weather   Switzerland   Burgdorf   Past weeks
Flag for Switzerland

Past Weather in Burgdorf, Bern, Switzerland — Yesterday and Last 2 Weeks

Currently: 45 °F. Passing clouds. (Weather station: Bern / Belp, Switzerland). See more current weather

Past Weather in Burgdorf — Graph

°F

Burgdorf Temperature Yesterday

Maximum temperature yesterday: 55 °F (at 4:50 pm)
Minimum temperature yesterday: 32 °F (at 1:50 am)
Average temperature yesterday: 42 °F

High & Low Weather Summary for the Past Weeks

 TemperatureHumidityPressure
High55 °F (Mar 2, 4:50 pm)100% (Feb 17, 11:20 pm)30.51 "Hg (Feb 17, 11:20 pm)
Low27 °F (Feb 25, 4:50 am)38% (Feb 25, 3:20 pm)29.39 "Hg (Mar 3, 1:50 pm)
Average43 °F82%29.88 "Hg
* Reported Feb 17 7:20 pm — Mar 3 7:50 pm, Burgdorf. Weather by CustomWeather, © 2024

Note: Actual official high and low records may vary slightly from our data, if they occured in-between our weather recording intervals... More about our weather records

Burgdorf Weather History for the Previous 24 Hours

Scroll right to see more
 ConditionsComfort  
Time TempWeatherWind HumidityBarometerVisibility
7:50 pm
Sun, Mar 3
45 °FClear.5 mph81%29.53 "Hg10 mi
7:20 pm46 °FPassing clouds.8 mph76%29.53 "HgN/A
6:50 pm50 °FClear.10 mph67%29.50 "Hg10 mi
6:20 pm50 °FClear.9 mph67%29.47 "Hg10 mi
5:50 pm52 °FSunny.9 mph67%29.45 "Hg10 mi
5:20 pm52 °FSunny.10 mph67%29.45 "Hg10 mi
4:50 pm54 °FPassing clouds.7 mph63%29.42 "HgN/A
4:20 pm55 °FSunny.9 mph51%29.42 "Hg10 mi
3:50 pm55 °FSunny.9 mph55%29.39 "Hg10 mi
3:20 pm55 °FSunny.8 mph55%29.39 "Hg10 mi
2:50 pm55 °FSunny.7 mph55%29.39 "Hg10 mi
2:20 pm55 °FSunny.8 mph55%29.39 "Hg10 mi
1:50 pm55 °FSunny.5 mph55%29.39 "Hg10 mi
1:20 pm54 °FSunny.3 mph63%29.42 "Hg10 mi
12:50 pm50 °FSunny.2 mph71%29.42 "Hg10 mi
12:20 pm48 °FSunny.1 mph76%29.42 "Hg10 mi
11:50 am46 °FSunny.1 mph82%29.42 "Hg10 mi
11:20 am46 °FSunny.1 mph82%29.45 "Hg10 mi
10:50 am45 °FPassing clouds.3 mph87%29.42 "HgN/A
10:20 am43 °FPassing clouds.2 mph93%29.45 "HgN/A
9:50 am43 °FScattered clouds.2 mph93%29.42 "HgN/A
9:20 am41 °FScattered clouds.2 mph93%29.42 "HgN/A
8:50 am41 °FSunny.2 mph93%29.42 "Hg10 mi
8:20 am39 °FBroken clouds.1 mph93%29.45 "HgN/A
7:50 am37 °FBroken clouds.3 mph100%29.45 "HgN/A
7:20 am37 °FBroken clouds.3 mph100%29.45 "HgN/A
6:50 am36 °FPassing clouds.5 mph100%29.45 "Hg4 mi
6:20 am37 °FPassing clouds.2 mph100%29.45 "Hg5 mi
5:50 am37 °FPassing clouds.2 mph100%29.45 "Hg5 mi
5:20 am39 °FPassing clouds.1 mph93%29.47 "Hg6 mi
4:50 am39 °FPassing clouds.2 mph93%29.47 "HgN/A
4:20 am37 °FPassing clouds.1 mph100%29.47 "Hg5 mi
3:50 am39 °FPassing clouds.2 mph93%29.47 "HgN/A
3:20 am39 °FPassing clouds.2 mph93%29.47 "HgN/A
2:50 am39 °FOvercast.2 mph100%29.47 "HgN/A
2:20 am39 °FPartly cloudy.1 mph93%29.47 "HgN/A
1:50 am39 °FPassing clouds.2 mph100%29.47 "HgN/A
1:20 am39 °FPassing clouds.1 mph100%29.50 "HgN/A
12:50 am39 °FPassing clouds.1 mph100%29.50 "HgN/A
12:20 am39 °FPassing clouds.2 mph93%29.50 "HgN/A
11:50 pm
Sat, Mar 2
41 °FPassing clouds.3 mph93%29.50 "HgN/A
11:20 pm41 °FPassing clouds.2 mph93%29.50 "HgN/A
10:50 pm39 °FPartly cloudy.1 mph100%29.50 "HgN/A
10:20 pm41 °FQuite cool.2 mph93%29.50 "HgN/A
9:50 pm41 °FPassing clouds.3 mph93%29.50 "HgN/A
9:20 pm41 °FPassing clouds.1 mph93%29.53 "HgN/A
Weather by CustomWeather, © 2024

See weather overview